sensor_id;sensor_type;location;lat;lon;timestamp;temperature;humidity
59148;DHT22;44930;52.878;6.168;2023-02-15T00:00:04;1.30;99.90
59148;DHT22;44930;52.878;6.168;2023-02-15T00:02:31;1.30;99.90
59148;DHT22;44930;52.878;6.168;2023-02-15T00:04:56;1.30;99.90
59148;DHT22;44930;52.878;6.168;2023-02-15T00:07:22;1.30;99.90
59148;DHT22;44930;52.878;6.168;2023-02-15T00:09:48;1.40;99.90
59148;DHT22;44930;52.878;6.168;2023-02-15T00:12:15;1.40;99.90
59148;DHT22;44930;52.878;6.168;2023-02-15T00:14:40;1.40;99.90
59148;DHT22;44930;52.878;6.168;2023-02-15T00:17:07;1.20;99.90
59148;DHT22;44930;52.878;6.168;2023-02-15T00:21:59;1.40;99.90
59148;DHT22;44930;52.878;6.168;2023-02-15T00:24:24;1.40;99.90
59148;DHT22;44930;52.878;6.168;2023-02-15T00:26:50;1.30;99.90
59148;DHT22;44930;52.878;6.168;2023-02-15T00:29:17;1.30;99.90
59148;DHT22;44930;52.878;6.168;2023-02-15T00:31:43;1.30;99.90
59148;DHT22;44930;52.878;6.168;2023-02-15T00:36:38;1.20;99.90
59148;DHT22;44930;52.878;6.168;2023-02-15T00:39:04;1.20;99.90
59148;DHT22;44930;52.878;6.168;2023-02-15T00:41:30;1.20;99.90
59148;DHT22;44930;52.878;6.168;2023-02-15T00:43:56;1.20;99.90
59148;DHT22;44930;52.878;6.168;2023-02-15T00:46:21;1.20;99.90
59148;DHT22;44930;52.878;6.168;2023-02-15T00:48:47;1.30;99.90
59148;DHT22;44930;52.878;6.168;2023-02-15T00:51:13;1.10;99.90
59148;DHT22;44930;52.878;6.168;2023-02-15T00:53:38;1.10;99.90
59148;DHT22;44930;52.878;6.168;2023-02-15T00:56:04;1.20;99.90
59148;DHT22;44930;52.878;6.168;2023-02-15T00:58:29;1.20;99.90
59148;DHT22;44930;52.878;6.168;2023-02-15T01:01:06;1.10;99.90
59148;DHT22;44930;52.878;6.168;2023-02-15T01:03:32;1.10;99.90
59148;DHT22;44930;52.878;6.168;2023-02-15T01:05:58;1.20;99.90
59148;DHT22;44930;52.878;6.168;2023-02-15T01:08:24;1.10;99.90
59148;DHT22;44930;52.878;6.168;2023-02-15T01:10:49;1.10;99.90
59148;DHT22;44930;52.878;6.168;2023-02-15T01:13:16;1.00;99.90
59148;DHT22;44930;52.878;6.168;2023-02-15T01:15:42;1.00;99.90
59148;DHT22;44930;52.878;6.168;2023-02-15T01:20:36;1.00;99.90
59148;DHT22;44930;52.878;6.168;2023-02-15T01:23:05;0.90;99.90
59148;DHT22;44930;52.878;6.168;2023-02-15T01:27:57;1.00;99.90
59148;DHT22;44930;52.878;6.168;2023-02-15T01:32:48;1.00;99.90
59148;DHT22;44930;52.878;6.168;2023-02-15T01:35:14;0.90;99.90
59148;DHT22;44930;52.878;6.168;2023-02-15T01:40:08;1.00;99.90
59148;DHT22;44930;52.878;6.168;2023-02-15T01:47:51;0.70;99.90
59148;DHT22;44930;52.878;6.168;2023-02-15T01:50:41;1.00;99.90
59148;DHT22;44930;52.878;6.168;2023-02-15T01:53:27;1.40;99.90
59148;DHT22;44930;52.878;6.168;2023-02-15T01:56:10;0.70;99.90
59148;DHT22;44930;52.878;6.168;2023-02-15T01:58:38;0.90;99.90
59148;DHT22;44930;52.878;6.168;2023-02-15T02:01:06;0.70;99.90
59148;DHT22;44930;52.878;6.168;2023-02-15T02:06:10;0.80;99.90
59148;DHT22;44930;52.878;6.168;2023-02-15T02:08:36;0.80;99.90
59148;DHT22;44930;52.878;6.168;2023-02-15T02:11:02;0.70;99.90
59148;DHT22;44930;52.878;6.168;2023-02-15T02:13:28;0.80;99.90
59148;DHT22;44930;52.878;6.168;2023-02-15T02:30:18;0.40;99.90
59148;DHT22;44930;52.878;6.168;2023-02-15T02:33:17;0.70;99.90
59148;DHT22;44930;52.878;6.168;2023-02-15T02:36:05;0.90;99.90
59148;DHT22;44930;52.878;6.168;2023-02-15T02:41:35;0.40;99.90
59148;DHT22;44930;52.878;6.168;2023-02-15T02:44:23;0.40;99.90
59148;DHT22;44930;52.878;6.168;2023-02-15T02:47:12;0.50;99.90
59148;DHT22;44930;52.878;6.168;2023-02-15T02:49:40;0.40;99.90
59148;DHT22;44930;52.878;6.168;2023-02-15T02:57:24;0.40;99.90
59148;DHT22;44930;52.878;6.168;2023-02-15T02:59:52;0.40;99.90
59148;DHT22;44930;52.878;6.168;2023-02-15T03:02:28;0.30;99.90
59148;DHT22;44930;52.878;6.168;2023-02-15T03:04:59;0.30;99.90
59148;DHT22;44930;52.878;6.168;2023-02-15T03:07:30;0.40;99.90
59148;DHT22;44930;52.878;6.168;2023-02-15T03:12:35;0.30;99.90
59148;DHT22;44930;52.878;6.168;2023-02-15T03:15:16;0.40;99.90
59148;DHT22;44930;52.878;6.168;2023-02-15T03:20:33;0.60;99.90
59148;DHT22;44930;52.878;6.168;2023-02-15T03:23:04;0.30;99.90
59148;DHT22;44930;52.878;6.168;2023-02-15T03:25:46;0.40;99.90
59148;DHT22;44930;52.878;6.168;2023-02-15T03:28:18;0.40;99.90
59148;DHT22;44930;52.878;6.168;2023-02-15T03:33:13;0.30;99.90
59148;DHT22;44930;52.878;6.168;2023-02-15T03:35:48;0.60;99.90
59148;DHT22;44930;52.878;6.168;2023-02-15T03:38:20;0.40;99.90
59148;DHT22;44930;52.878;6.168;2023-02-15T03:40:48;0.40;99.90
59148;DHT22;44930;52.878;6.168;2023-02-15T03:43:52;0.40;99.90
59148;DHT22;44930;52.878;6.168;2023-02-15T03:48:55;0.10;99.90
59148;DHT22;44930;52.878;6.168;2023-02-15T03:51:26;0.50;99.90
59148;DHT22;44930;52.878;6.168;2023-02-15T03:54:03;0.40;99.90
59148;DHT22;44930;52.878;6.168;2023-02-15T03:56:30;0.40;99.90
59148;DHT22;44930;52.878;6.168;2023-02-15T03:58:56;0.60;99.90
59148;DHT22;44930;52.878;6.168;2023-02-15T04:06:51;0.30;99.90
59148;DHT22;44930;52.878;6.168;2023-02-15T04:09:16;0.40;99.90
59148;DHT22;44930;52.878;6.168;2023-02-15T04:12:01;0.40;99.90
59148;DHT22;44930;52.878;6.168;2023-02-15T04:14:26;0.40;99.90
59148;DHT22;44930;52.878;6.168;2023-02-15T04:19:36;0.50;99.90
59148;DHT22;44930;52.878;6.168;2023-02-15T04:22:21;0.30;99.90
59148;DHT22;44930;52.878;6.168;2023-02-15T04:25:05;0.30;99.90
59148;DHT22;44930;52.878;6.168;2023-02-15T04:27:43;0.00;99.90
59148;DHT22;44930;52.878;6.168;2023-02-15T04:30:09;0.30;99.90
59148;DHT22;44930;52.878;6.168;2023-02-15T04:32:36;0.20;99.90
59148;DHT22;44930;52.878;6.168;2023-02-15T04:35:02;0.30;99.90
59148;DHT22;44930;52.878;6.168;2023-02-15T04:39:54;0.30;99.90
59148;DHT22;44930;52.878;6.168;2023-02-15T04:42:19;0.30;99.90
59148;DHT22;44930;52.878;6.168;2023-02-15T04:44:45;0.20;99.90
59148;DHT22;44930;52.878;6.168;2023-02-15T04:47:10;0.20;99.90
59148;DHT22;44930;52.878;6.168;2023-02-15T04:52:02;0.10;99.90
59148;DHT22;44930;52.878;6.168;2023-02-15T04:54:27;0.10;99.90
59148;DHT22;44930;52.878;6.168;2023-02-15T04:56:53;0.20;99.90
59148;DHT22;44930;52.878;6.168;2023-02-15T04:59:19;0.20;99.90
59148;DHT22;44930;52.878;6.168;2023-02-15T05:01:44;0.20;99.90
59148;DHT22;44930;52.878;6.168;2023-02-15T05:04:10;0.20;99.90
59148;DHT22;44930;52.878;6.168;2023-02-15T05:06:35;0.10;99.90
59148;DHT22;44930;52.878;6.168;2023-02-15T05:09:01;0.10;99.90
59148;DHT22;44930;52.878;6.168;2023-02-15T05:13:53;0.20;99.90
59148;DHT22;44930;52.878;6.168;2023-02-15T05:18:44;0.30;99.90
59148;DHT22;44930;52.878;6.168;2023-02-15T05:23:36;0.40;99.90
59148;DHT22;44930;52.878;6.168;2023-02-15T05:26:03;0.50;99.90
59148;DHT22;44930;52.878;6.168;2023-02-15T05:33:44;0.50;99.90
59148;DHT22;44930;52.878;6.168;2023-02-15T05:36:10;0.50;99.90
59148;DHT22;44930;52.878;6.168;2023-02-15T05:41:03;0.70;99.90
59148;DHT22;44930;52.878;6.168;2023-02-15T05:43:30;0.60;99.90
59148;DHT22;44930;52.878;6.168;2023-02-15T05:45:55;0.60;99.90
59148;DHT22;44930;52.878;6.168;2023-02-15T05:48:23;0.70;99.90
59148;DHT22;44930;52.878;6.168;2023-02-15T05:51:02;0.80;99.90
59148;DHT22;44930;52.878;6.168;2023-02-15T05:55:55;0.70;99.90
59148;DHT22;44930;52.878;6.168;2023-02-15T05:58:29;0.70;99.90
59148;DHT22;44930;52.878;6.168;2023-02-15T06:00:54;0.50;99.90
59148;DHT22;44930;52.878;6.168;2023-02-15T06:03:21;0.70;99.90
59148;DHT22;44930;52.878;6.168;2023-02-15T06:05:47;0.70;99.90
59148;DHT22;44930;52.878;6.168;2023-02-15T06:08:12;0.70;99.90
59148;DHT22;44930;52.878;6.168;2023-02-15T06:10:38;0.50;99.90
59148;DHT22;44930;52.878;6.168;2023-02-15T06:13:05;0.70;99.90
59148;DHT22;44930;52.878;6.168;2023-02-15T06:15:31;0.70;99.90
59148;DHT22;44930;52.878;6.168;2023-02-15T06:17:56;0.60;99.90
59148;DHT22;44930;52.878;6.168;2023-02-15T06:20:22;0.60;99.90
59148;DHT22;44930;52.878;6.168;2023-02-15T06:22:47;0.50;99.90
59148;DHT22;44930;52.878;6.168;2023-02-15T06:25:13;0.50;99.90
59148;DHT22;44930;52.878;6.168;2023-02-15T06:27:41;0.50;99.90
59148;DHT22;44930;52.878;6.168;2023-02-15T06:30:08;0.60;99.90
59148;DHT22;44930;52.878;6.168;2023-02-15T06:32:34;0.50;99.90
59148;DHT22;44930;52.878;6.168;2023-02-15T06:35:00;0.50;99.90
59148;DHT22;44930;52.878;6.168;2023-02-15T06:37:26;0.40;99.90
59148;DHT22;44930;52.878;6.168;2023-02-15T06:39:51;0.60;99.90
59148;DHT22;44930;52.878;6.168;2023-02-15T06:44:44;0.60;99.90
59148;DHT22;44930;52.878;6.168;2023-02-15T06:47:09;0.60;99.90
59148;DHT22;44930;52.878;6.168;2023-02-15T06:49:36;0.60;99.90
59148;DHT22;44930;52.878;6.168;2023-02-15T06:52:02;0.50;99.90
59148;DHT22;44930;52.878;6.168;2023-02-15T06:54:28;0.60;99.90
59148;DHT22;44930;52.878;6.168;2023-02-15T06:56:54;0.70;99.90
59148;DHT22;44930;52.878;6.168;2023-02-15T06:59:19;0.60;99.90
59148;DHT22;44930;52.878;6.168;2023-02-15T07:01:45;0.70;99.90
59148;DHT22;44930;52.878;6.168;2023-02-15T07:04:10;0.60;99.90
59148;DHT22;44930;52.878;6.168;2023-02-15T07:06:36;0.50;99.90
59148;DHT22;44930;52.878;6.168;2023-02-15T07:09:02;0.50;99.90
59148;DHT22;44930;52.878;6.168;2023-02-15T07:11:28;0.50;99.90
59148;DHT22;44930;52.878;6.168;2023-02-15T07:14:14;0.50;99.90
59148;DHT22;44930;52.878;6.168;2023-02-15T07:16:39;0.40;99.90
59148;DHT22;44930;52.878;6.168;2023-02-15T07:19:05;0.60;99.90
59148;DHT22;44930;52.878;6.168;2023-02-15T07:21:30;0.80;99.90
59148;DHT22;44930;52.878;6.168;2023-02-15T07:23:57;0.60;99.90
59148;DHT22;44930;52.878;6.168;2023-02-15T07:26:24;0.60;99.90
59148;DHT22;44930;52.878;6.168;2023-02-15T07:28:50;0.70;99.90
59148;DHT22;44930;52.878;6.168;2023-02-15T07:31:16;0.80;99.90
59148;DHT22;44930;52.878;6.168;2023-02-15T07:33:41;0.80;99.90
59148;DHT22;44930;52.878;6.168;2023-02-15T07:36:07;1.00;99.90
59148;DHT22;44930;52.878;6.168;2023-02-15T07:38:36;0.80;99.90
59148;DHT22;44930;52.878;6.168;2023-02-15T07:41:04;1.00;99.90
59148;DHT22;44930;52.878;6.168;2023-02-15T07:43:32;1.00;99.90
59148;DHT22;44930;52.878;6.168;2023-02-15T07:46:02;1.00;99.90
59148;DHT22;44930;52.878;6.168;2023-02-15T07:48:28;1.00;99.90
59148;DHT22;44930;52.878;6.168;2023-02-15T07:53:19;1.10;99.90
59148;DHT22;44930;52.878;6.168;2023-02-15T07:55:45;0.80;99.90
59148;DHT22;44930;52.878;6.168;2023-02-15T07:58:10;1.30;99.90
59148;DHT22;44930;52.878;6.168;2023-02-15T08:00:36;1.20;99.90
59148;DHT22;44930;52.878;6.168;2023-02-15T08:05:58;1.40;99.90
59148;DHT22;44930;52.878;6.168;2023-02-15T08:08:25;1.30;99.90
59148;DHT22;44930;52.878;6.168;2023-02-15T08:13:44;1.40;99.90
59148;DHT22;44930;52.878;6.168;2023-02-15T08:18:47;1.50;99.90
59148;DHT22;44930;52.878;6.168;2023-02-15T08:26:05;1.60;99.90
59148;DHT22;44930;52.878;6.168;2023-02-15T08:28:31;1.70;99.90
59148;DHT22;44930;52.878;6.168;2023-02-15T08:31:07;2.10;99.90
59148;DHT22;44930;52.878;6.168;2023-02-15T08:33:34;1.90;99.90
59148;DHT22;44930;52.878;6.168;2023-02-15T08:36:06;2.00;99.90
59148;DHT22;44930;52.878;6.168;2023-02-15T08:38:32;2.00;99.90
59148;DHT22;44930;52.878;6.168;2023-02-15T08:40:58;2.10;99.90
59148;DHT22;44930;52.878;6.168;2023-02-15T08:43:24;2.20;99.90
59148;DHT22;44930;52.878;6.168;2023-02-15T08:45:49;2.20;99.90
59148;DHT22;44930;52.878;6.168;2023-02-15T08:48:15;2.30;99.90
59148;DHT22;44930;52.878;6.168;2023-02-15T08:53:06;2.50;99.90
59148;DHT22;44930;52.878;6.168;2023-02-15T08:55:32;2.60;99.90
59148;DHT22;44930;52.878;6.168;2023-02-15T09:00:23;2.60;99.90
59148;DHT22;44930;52.878;6.168;2023-02-15T09:02:50;2.70;99.90
59148;DHT22;44930;52.878;6.168;2023-02-15T09:05:16;2.80;99.90
59148;DHT22;44930;52.878;6.168;2023-02-15T09:07:41;3.00;99.90
59148;DHT22;44930;52.878;6.168;2023-02-15T09:10:07;2.90;99.90
59148;DHT22;44930;52.878;6.168;2023-02-15T09:12:32;3.10;99.90
59148;DHT22;44930;52.878;6.168;2023-02-15T09:14:58;3.10;99.90
59148;DHT22;44930;52.878;6.168;2023-02-15T09:17:23;3.10;99.90
59148;DHT22;44930;52.878;6.168;2023-02-15T09:19:49;3.20;99.90
59148;DHT22;44930;52.878;6.168;2023-02-15T09:22:14;3.30;99.90
59148;DHT22;44930;52.878;6.168;2023-02-15T09:24:40;3.30;99.90
59148;DHT22;44930;52.878;6.168;2023-02-15T09:27:06;3.40;99.90
59148;DHT22;44930;52.878;6.168;2023-02-15T09:29:31;3.60;99.90
59148;DHT22;44930;52.878;6.168;2023-02-15T09:31:57;3.80;99.90
59148;DHT22;44930;52.878;6.168;2023-02-15T09:34:23;3.80;99.90
59148;DHT22;44930;52.878;6.168;2023-02-15T09:39:17;4.00;99.90
59148;DHT22;44930;52.878;6.168;2023-02-15T09:53:29;4.50;99.90
59148;DHT22;44930;52.878;6.168;2023-02-15T10:01:37;4.80;99.90
59148;DHT22;44930;52.878;6.168;2023-02-15T10:18:21;5.30;99.90
59148;DHT22;44930;52.878;6.168;2023-02-15T10:20:59;5.50;99.90
59148;DHT22;44930;52.878;6.168;2023-02-15T10:23:49;5.50;99.90
59148;DHT22;44930;52.878;6.168;2023-02-15T10:26:37;5.60;99.90
59148;DHT22;44930;52.878;6.168;2023-02-15T10:31:55;5.90;99.90
59148;DHT22;44930;52.878;6.168;2023-02-15T10:34:39;5.90;99.90
59148;DHT22;44930;52.878;6.168;2023-02-15T10:50:51;6.30;99.90
59148;DHT22;44930;52.878;6.168;2023-02-15T10:56:30;7.00;99.90
59148;DHT22;44930;52.878;6.168;2023-02-15T10:59:24;7.00;99.90
59148;DHT22;44930;52.878;6.168;2023-02-15T11:07:19;7.10;99.90
59148;DHT22;44930;52.878;6.168;2023-02-15T11:12:44;7.50;99.90
59148;DHT22;44930;52.878;6.168;2023-02-15T11:17:47;7.70;99.90
59148;DHT22;44930;52.878;6.168;2023-02-15T11:20:57;7.80;99.90
59148;DHT22;44930;52.878;6.168;2023-02-15T11:23:13;8.30;99.90
59148;DHT22;44930;52.878;6.168;2023-02-15T11:25:45;7.80;99.90
59148;DHT22;44930;52.878;6.168;2023-02-15T11:28:24;8.00;99.90
59148;DHT22;44930;52.878;6.168;2023-02-15T11:30:54;7.70;99.90
59148;DHT22;44930;52.878;6.168;2023-02-15T11:33:34;7.70;99.90
59148;DHT22;44930;52.878;6.168;2023-02-15T11:36:08;8.20;99.90
59148;DHT22;44930;52.878;6.168;2023-02-15T11:38:37;8.30;99.90
59148;DHT22;44930;52.878;6.168;2023-02-15T11:41:14;8.30;99.90
59148;DHT22;44930;52.878;6.168;2023-02-15T11:43:47;8.50;99.90
59148;DHT22;44930;52.878;6.168;2023-02-15T11:46:15;8.50;99.90
59148;DHT22;44930;52.878;6.168;2023-02-15T11:48:41;8.40;99.90
59148;DHT22;44930;52.878;6.168;2023-02-15T11:51:21;8.40;99.90
59148;DHT22;44930;52.878;6.168;2023-02-15T11:56:16;8.50;99.90
59148;DHT22;44930;52.878;6.168;2023-02-15T11:59:02;8.30;99.90
59148;DHT22;44930;52.878;6.168;2023-02-15T12:01:34;8.60;99.90
59148;DHT22;44930;52.878;6.168;2023-02-15T12:04:30;8.90;99.90
59148;DHT22;44930;52.878;6.168;2023-02-15T12:07:17;8.60;99.90
59148;DHT22;44930;52.878;6.168;2023-02-15T12:09:55;8.80;99.90
59148;DHT22;44930;52.878;6.168;2023-02-15T12:12:31;8.70;99.90
59148;DHT22;44930;52.878;6.168;2023-02-15T12:15:03;8.90;99.90
59148;DHT22;44930;52.878;6.168;2023-02-15T12:17:48;8.80;99.90
59148;DHT22;44930;52.878;6.168;2023-02-15T12:25:26;9.00;99.90
59148;DHT22;44930;52.878;6.168;2023-02-15T12:27:55;9.10;99.90
59148;DHT22;44930;52.878;6.168;2023-02-15T12:30:32;9.10;99.90
59148;DHT22;44930;52.878;6.168;2023-02-15T12:35:39;9.20;99.90
59148;DHT22;44930;52.878;6.168;2023-02-15T12:38:21;9.20;99.90
59148;DHT22;44930;52.878;6.168;2023-02-15T12:41:44;9.20;99.90
59148;DHT22;44930;52.878;6.168;2023-02-15T12:43:44;9.20;99.90
59148;DHT22;44930;52.878;6.168;2023-02-15T12:48:44;9.20;99.90
59148;DHT22;44930;52.878;6.168;2023-02-15T12:51:15;9.20;99.90
59148;DHT22;44930;52.878;6.168;2023-02-15T12:53:40;9.50;99.90
59148;DHT22;44930;52.878;6.168;2023-02-15T12:56:08;9.40;99.90
59148;DHT22;44930;52.878;6.168;2023-02-15T12:58:36;9.20;99.90
59148;DHT22;44930;52.878;6.168;2023-02-15T13:03:38;9.60;99.90
59148;DHT22;44930;52.878;6.168;2023-02-15T13:06:05;9.60;99.90
59148;DHT22;44930;52.878;6.168;2023-02-15T13:08:39;9.40;99.90
59148;DHT22;44930;52.878;6.168;2023-02-15T13:11:11;9.40;99.90
59148;DHT22;44930;52.878;6.168;2023-02-15T13:14:01;9.60;99.90
59148;DHT22;44930;52.878;6.168;2023-02-15T13:16:36;9.70;99.90
59148;DHT22;44930;52.878;6.168;2023-02-15T13:19:14;9.70;99.90
59148;DHT22;44930;52.878;6.168;2023-02-15T13:21:45;9.60;99.90
59148;DHT22;44930;52.878;6.168;2023-02-15T13:24:32;9.90;99.90
59148;DHT22;44930;52.878;6.168;2023-02-15T13:26:59;9.80;99.90
59148;DHT22;44930;52.878;6.168;2023-02-15T13:29:29;9.70;99.90
59148;DHT22;44930;52.878;6.168;2023-02-15T13:31:58;9.80;99.90
59148;DHT22;44930;52.878;6.168;2023-02-15T13:34:31;9.80;99.90
59148;DHT22;44930;52.878;6.168;2023-02-15T13:37:20;10.10;99.90
59148;DHT22;44930;52.878;6.168;2023-02-15T13:40:00;10.00;99.90
59148;DHT22;44930;52.878;6.168;2023-02-15T13:42:44;10.20;99.90
59148;DHT22;44930;52.878;6.168;2023-02-15T13:45:28;10.40;99.90
59148;DHT22;44930;52.878;6.168;2023-02-15T13:51:38;10.20;99.90
59148;DHT22;44930;52.878;6.168;2023-02-15T13:54:53;10.30;99.90
59148;DHT22;44930;52.878;6.168;2023-02-15T13:57:19;10.70;99.90
59148;DHT22;44930;52.878;6.168;2023-02-15T14:00:09;10.40;99.90
59148;DHT22;44930;52.878;6.168;2023-02-15T14:11:05;10.50;99.90
59148;DHT22;44930;52.878;6.168;2023-02-15T14:16:33;10.20;99.90
59148;DHT22;44930;52.878;6.168;2023-02-15T14:19:12;10.30;99.90
59148;DHT22;44930;52.878;6.168;2023-02-15T14:21:51;10.20;99.90
59148;DHT22;44930;52.878;6.168;2023-02-15T14:24:47;10.20;99.90
59148;DHT22;44930;52.878;6.168;2023-02-15T14:30:15;10.40;99.90
59148;DHT22;44930;52.878;6.168;2023-02-15T14:32:53;10.00;99.90
59148;DHT22;44930;52.878;6.168;2023-02-15T14:35:26;10.00;99.90
59148;DHT22;44930;52.878;6.168;2023-02-15T14:41:11;10.20;99.90
59148;DHT22;44930;52.878;6.168;2023-02-15T14:46:30;10.20;99.90
59148;DHT22;44930;52.878;6.168;2023-02-15T14:49:11;10.20;99.90
59148;DHT22;44930;52.878;6.168;2023-02-15T15:07:20;9.80;99.90
59148;DHT22;44930;52.878;6.168;2023-02-15T15:10:17;9.80;99.90
59148;DHT22;44930;52.878;6.168;2023-02-15T15:12:52;9.80;99.90
59148;DHT22;44930;52.878;6.168;2023-02-15T15:17:58;9.80;99.90
59148;DHT22;44930;52.878;6.168;2023-02-15T15:20:51;9.60;99.90
59148;DHT22;44930;52.878;6.168;2023-02-15T15:25:53;9.80;99.90
59148;DHT22;44930;52.878;6.168;2023-02-15T15:50:39;9.30;99.90
59148;DHT22;44930;52.878;6.168;2023-02-15T15:53:06;9.30;99.90
59148;DHT22;44930;52.878;6.168;2023-02-15T15:55:41;9.20;99.90
59148;DHT22;44930;52.878;6.168;2023-02-15T15:58:08;9.10;99.90
59148;DHT22;44930;52.878;6.168;2023-02-15T16:03:20;9.30;99.90
59148;DHT22;44930;52.878;6.168;2023-02-15T16:05:47;9.10;99.90
59148;DHT22;44930;52.878;6.168;2023-02-15T16:08:33;8.90;99.90
59148;DHT22;44930;52.878;6.168;2023-02-15T16:11:02;8.90;99.90
59148;DHT22;44930;52.878;6.168;2023-02-15T16:13:33;8.90;99.90
59148;DHT22;44930;52.878;6.168;2023-02-15T16:15:59;8.80;99.90
59148;DHT22;44930;52.878;6.168;2023-02-15T16:18:26;8.70;99.90
59148;DHT22;44930;52.878;6.168;2023-02-15T16:21:01;8.80;99.90
59148;DHT22;44930;52.878;6.168;2023-02-15T16:23:59;8.70;99.90
59148;DHT22;44930;52.878;6.168;2023-02-15T16:29:17;8.50;99.90
59148;DHT22;44930;52.878;6.168;2023-02-15T16:31:43;8.60;99.90
59148;DHT22;44930;52.878;6.168;2023-02-15T16:34:21;8.60;99.90
59148;DHT22;44930;52.878;6.168;2023-02-15T16:36:46;8.50;99.90
59148;DHT22;44930;52.878;6.168;2023-02-15T16:39:18;8.40;99.90
59148;DHT22;44930;52.878;6.168;2023-02-15T16:41:44;8.30;99.90
59148;DHT22;44930;52.878;6.168;2023-02-15T16:44:19;8.40;99.90
59148;DHT22;44930;52.878;6.168;2023-02-15T16:46:54;8.30;99.90
59148;DHT22;44930;52.878;6.168;2023-02-15T16:49:23;8.30;99.90
59148;DHT22;44930;52.878;6.168;2023-02-15T16:54:24;8.20;99.90
59148;DHT22;44930;52.878;6.168;2023-02-15T16:56:51;8.10;99.90
59148;DHT22;44930;52.878;6.168;2023-02-15T16:59:30;8.10;99.90
59148;DHT22;44930;52.878;6.168;2023-02-15T17:01:57;8.00;99.90
59148;DHT22;44930;52.878;6.168;2023-02-15T17:04:27;7.90;99.90
59148;DHT22;44930;52.878;6.168;2023-02-15T17:09:28;7.80;99.90
59148;DHT22;44930;52.878;6.168;2023-02-15T17:11:54;7.70;99.90
59148;DHT22;44930;52.878;6.168;2023-02-15T17:14:28;7.60;99.90
59148;DHT22;44930;52.878;6.168;2023-02-15T17:16:59;7.50;99.90
59148;DHT22;44930;52.878;6.168;2023-02-15T17:19:31;7.60;99.90
59148;DHT22;44930;52.878;6.168;2023-02-15T17:22:05;7.60;99.90
59148;DHT22;44930;52.878;6.168;2023-02-15T17:24:41;7.70;99.90
59148;DHT22;44930;52.878;6.168;2023-02-15T17:27:11;7.90;99.90
59148;DHT22;44930;52.878;6.168;2023-02-15T17:32:11;7.50;99.90
59148;DHT22;44930;52.878;6.168;2023-02-15T17:42:44;7.50;99.90
59148;DHT22;44930;52.878;6.168;2023-02-15T17:45:10;7.40;99.90
59148;DHT22;44930;52.878;6.168;2023-02-15T17:47:35;7.50;99.90
59148;DHT22;44930;52.878;6.168;2023-02-15T17:50:03;7.30;99.90
59148;DHT22;44930;52.878;6.168;2023-02-15T17:52:30;7.20;99.90
59148;DHT22;44930;52.878;6.168;2023-02-15T17:54:56;7.10;99.90
59148;DHT22;44930;52.878;6.168;2023-02-15T17:57:40;7.20;99.90
59148;DHT22;44930;52.878;6.168;2023-02-15T18:00:06;7.10;99.90
59148;DHT22;44930;52.878;6.168;2023-02-15T18:02:51;7.10;99.90
59148;DHT22;44930;52.878;6.168;2023-02-15T18:05:35;7.10;99.90
59148;DHT22;44930;52.878;6.168;2023-02-15T18:08:25;6.90;99.90
59148;DHT22;44930;52.878;6.168;2023-02-15T18:11:10;7.10;99.90
59148;DHT22;44930;52.878;6.168;2023-02-15T18:13:54;6.90;99.90
59148;DHT22;44930;52.878;6.168;2023-02-15T18:16:24;7.10;99.90
59148;DHT22;44930;52.878;6.168;2023-02-15T18:18:51;6.90;99.90
59148;DHT22;44930;52.878;6.168;2023-02-15T18:21:17;6.90;99.90
59148;DHT22;44930;52.878;6.168;2023-02-15T18:23:43;6.80;99.90
59148;DHT22;44930;52.878;6.168;2023-02-15T18:26:16;6.90;99.90
59148;DHT22;44930;52.878;6.168;2023-02-15T18:28:42;6.90;99.90
59148;DHT22;44930;52.878;6.168;2023-02-15T18:31:09;6.70;99.90
59148;DHT22;44930;52.878;6.168;2023-02-15T18:33:44;6.80;99.90
59148;DHT22;44930;52.878;6.168;2023-02-15T18:36:25;6.70;99.90
59148;DHT22;44930;52.878;6.168;2023-02-15T18:38:52;6.80;99.90
59148;DHT22;44930;52.878;6.168;2023-02-15T18:41:19;6.90;99.90
59148;DHT22;44930;52.878;6.168;2023-02-15T18:46:13;6.80;99.90
59148;DHT22;44930;52.878;6.168;2023-02-15T18:48:39;6.70;99.90
59148;DHT22;44930;52.878;6.168;2023-02-15T18:51:09;6.70;99.90
59148;DHT22;44930;52.878;6.168;2023-02-15T18:53:39;6.70;99.90
59148;DHT22;44930;52.878;6.168;2023-02-15T18:56:07;6.70;99.90
59148;DHT22;44930;52.878;6.168;2023-02-15T18:58:33;6.70;99.90
59148;DHT22;44930;52.878;6.168;2023-02-15T19:00:59;6.60;99.90
59148;DHT22;44930;52.878;6.168;2023-02-15T19:03:25;6.70;99.90
59148;DHT22;44930;52.878;6.168;2023-02-15T19:05:50;6.70;99.90
59148;DHT22;44930;52.878;6.168;2023-02-15T19:10:44;6.70;99.90
59148;DHT22;44930;52.878;6.168;2023-02-15T19:13:11;6.70;99.90
59148;DHT22;44930;52.878;6.168;2023-02-15T19:15:37;6.70;99.90
59148;DHT22;44930;52.878;6.168;2023-02-15T19:18:03;6.70;99.90
59148;DHT22;44930;52.878;6.168;2023-02-15T19:20:31;6.60;99.90
59148;DHT22;44930;52.878;6.168;2023-02-15T19:22:58;6.70;99.90
59148;DHT22;44930;52.878;6.168;2023-02-15T19:25:28;6.60;99.90
59148;DHT22;44930;52.878;6.168;2023-02-15T19:27:54;6.70;99.90
59148;DHT22;44930;52.878;6.168;2023-02-15T19:30:28;6.70;99.90
59148;DHT22;44930;52.878;6.168;2023-02-15T19:32:55;6.70;99.90
59148;DHT22;44930;52.878;6.168;2023-02-15T19:35:23;6.50;99.90
59148;DHT22;44930;52.878;6.168;2023-02-15T19:37:52;6.50;99.90
59148;DHT22;44930;52.878;6.168;2023-02-15T19:40:24;6.60;99.90
59148;DHT22;44930;52.878;6.168;2023-02-15T19:42:50;6.60;99.90
59148;DHT22;44930;52.878;6.168;2023-02-15T19:45:30;6.40;99.90
59148;DHT22;44930;52.878;6.168;2023-02-15T19:47:56;6.50;99.90
59148;DHT22;44930;52.878;6.168;2023-02-15T19:52:51;6.60;99.90
59148;DHT22;44930;52.878;6.168;2023-02-15T19:55:29;6.50;99.90
59148;DHT22;44930;52.878;6.168;2023-02-15T19:57:56;6.60;99.90
59148;DHT22;44930;52.878;6.168;2023-02-15T20:00:25;6.50;99.90
59148;DHT22;44930;52.878;6.168;2023-02-15T20:02:51;6.60;99.90
59148;DHT22;44930;52.878;6.168;2023-02-15T20:05:17;6.70;99.90
59148;DHT22;44930;52.878;6.168;2023-02-15T20:07:47;6.70;99.90
59148;DHT22;44930;52.878;6.168;2023-02-15T20:10:28;6.60;99.90
59148;DHT22;44930;52.878;6.168;2023-02-15T20:12:55;6.60;99.90
59148;DHT22;44930;52.878;6.168;2023-02-15T20:17:49;6.50;99.90
59148;DHT22;44930;52.878;6.168;2023-02-15T20:20:15;6.50;99.90
59148;DHT22;44930;52.878;6.168;2023-02-15T20:22:44;6.50;99.90
59148;DHT22;44930;52.878;6.168;2023-02-15T20:25:19;6.50;99.90
59148;DHT22;44930;52.878;6.168;2023-02-15T20:27:45;6.60;99.90
59148;DHT22;44930;52.878;6.168;2023-02-15T20:30:15;6.40;99.90
59148;DHT22;44930;52.878;6.168;2023-02-15T20:32:41;6.40;99.90
59148;DHT22;44930;52.878;6.168;2023-02-15T20:35:15;6.40;99.90
59148;DHT22;44930;52.878;6.168;2023-02-15T20:37:47;6.50;99.90
59148;DHT22;44930;52.878;6.168;2023-02-15T20:40:21;6.60;99.90
59148;DHT22;44930;52.878;6.168;2023-02-15T20:42:47;6.30;99.90
59148;DHT22;44930;52.878;6.168;2023-02-15T20:45:24;6.40;99.90
59148;DHT22;44930;52.878;6.168;2023-02-15T20:47:51;6.30;99.90
59148;DHT22;44930;52.878;6.168;2023-02-15T20:50:22;6.20;99.90
59148;DHT22;44930;52.878;6.168;2023-02-15T20:52:50;6.20;99.90